sensor_id;sensor_type;location;lat;lon;timestamp;P1;durP1;ratioP1;P2;durP2;ratioP2
3369;SDS011;42042;51.948;7.628;2023-05-21T00:01:03;7.67;;;6.47;;
3369;SDS011;42042;51.948;7.628;2023-05-21T00:03:31;6.60;;;5.33;;
3369;SDS011;42042;51.948;7.628;2023-05-21T00:05:59;8.43;;;6.90;;
3369;SDS011;42042;51.948;7.628;2023-05-21T00:08:27;7.90;;;7.20;;
3369;SDS011;42042;51.948;7.628;2023-05-21T00:10:55;10.03;;;8.43;;
3369;SDS011;42042;51.948;7.628;2023-05-21T00:13:22;11.60;;;8.33;;
3369;SDS011;42042;51.948;7.628;2023-05-21T00:15:49;15.83;;;13.70;;
3369;SDS011;42042;51.948;7.628;2023-05-21T00:18:17;8.47;;;7.63;;
3369;SDS011;42042;51.948;7.628;2023-05-21T00:20:46;7.83;;;7.13;;
3369;SDS011;42042;51.948;7.628;2023-05-21T00:23:13;10.00;;;9.07;;
3369;SDS011;42042;51.948;7.628;2023-05-21T00:25:42;8.43;;;6.80;;
3369;SDS011;42042;51.948;7.628;2023-05-21T00:28:10;8.40;;;7.57;;
3369;SDS011;42042;51.948;7.628;2023-05-21T00:30:38;8.83;;;7.00;;
3369;SDS011;42042;51.948;7.628;2023-05-21T00:33:07;9.97;;;8.47;;
3369;SDS011;42042;51.948;7.628;2023-05-21T00:35:39;12.90;;;8.03;;
3369;SDS011;42042;51.948;7.628;2023-05-21T00:38:06;7.60;;;6.90;;
3369;SDS011;42042;51.948;7.628;2023-05-21T00:40:33;10.20;;;8.00;;
3369;SDS011;42042;51.948;7.628;2023-05-21T00:43:00;14.07;;;8.53;;
3369;SDS011;42042;51.948;7.628;2023-05-21T00:45:27;8.80;;;8.00;;
3369;SDS011;42042;51.948;7.628;2023-05-21T00:47:55;14.13;;;10.10;;
3369;SDS011;42042;51.948;7.628;2023-05-21T00:50:22;8.60;;;7.70;;
3369;SDS011;42042;51.948;7.628;2023-05-21T00:52:51;6.33;;;5.73;;
3369;SDS011;42042;51.948;7.628;2023-05-21T00:55:18;7.00;;;6.30;;
3369;SDS011;42042;51.948;7.628;2023-05-21T00:57:45;9.73;;;6.63;;
3369;SDS011;42042;51.948;7.628;2023-05-21T01:00:13;7.30;;;6.60;;
3369;SDS011;42042;51.948;7.628;2023-05-21T01:02:41;7.53;;;6.67;;
3369;SDS011;42042;51.948;7.628;2023-05-21T01:05:09;7.03;;;6.33;;
3369;SDS011;42042;51.948;7.628;2023-05-21T01:07:37;8.10;;;7.30;;
3369;SDS011;42042;51.948;7.628;2023-05-21T01:10:07;7.87;;;7.07;;
3369;SDS011;42042;51.948;7.628;2023-05-21T01:12:35;11.00;;;7.33;;
3369;SDS011;42042;51.948;7.628;2023-05-21T01:15:04;7.13;;;6.40;;
3369;SDS011;42042;51.948;7.628;2023-05-21T01:17:31;8.50;;;7.30;;
3369;SDS011;42042;51.948;7.628;2023-05-21T01:19:59;8.30;;;6.60;;
3369;SDS011;42042;51.948;7.628;2023-05-21T01:22:30;6.30;;;5.70;;
3369;SDS011;42042;51.948;7.628;2023-05-21T01:24:59;7.77;;;7.03;;
3369;SDS011;42042;51.948;7.628;2023-05-21T01:27:27;9.90;;;8.93;;
3369;SDS011;42042;51.948;7.628;2023-05-21T01:29:55;7.53;;;6.83;;
3369;SDS011;42042;51.948;7.628;2023-05-21T01:32:24;8.20;;;7.40;;
3369;SDS011;42042;51.948;7.628;2023-05-21T01:34:54;12.20;;;7.93;;
3369;SDS011;42042;51.948;7.628;2023-05-21T01:37:24;8.70;;;7.57;;
3369;SDS011;42042;51.948;7.628;2023-05-21T01:39:54;8.00;;;6.33;;
3369;SDS011;42042;51.948;7.628;2023-05-21T01:42:23;8.67;;;6.60;;
3369;SDS011;42042;51.948;7.628;2023-05-21T01:44:51;7.80;;;7.07;;
3369;SDS011;42042;51.948;7.628;2023-05-21T01:47:19;9.27;;;7.30;;
3369;SDS011;42042;51.948;7.628;2023-05-21T01:49:47;8.17;;;7.37;;
3369;SDS011;42042;51.948;7.628;2023-05-21T01:52:14;8.53;;;7.60;;
3369;SDS011;42042;51.948;7.628;2023-05-21T01:54:41;7.70;;;6.90;;
3369;SDS011;42042;51.948;7.628;2023-05-21T01:57:09;7.67;;;7.00;;
3369;SDS011;42042;51.948;7.628;2023-05-21T01:59:37;11.80;;;7.47;;
3369;SDS011;42042;51.948;7.628;2023-05-21T02:02:04;8.60;;;7.80;;
3369;SDS011;42042;51.948;7.628;2023-05-21T02:04:31;10.43;;;7.77;;
3369;SDS011;42042;51.948;7.628;2023-05-21T02:06:59;8.63;;;7.77;;
3369;SDS011;42042;51.948;7.628;2023-05-21T02:09:26;7.60;;;6.80;;
3369;SDS011;42042;51.948;7.628;2023-05-21T02:11:54;8.17;;;7.10;;
3369;SDS011;42042;51.948;7.628;2023-05-21T02:14:22;10.57;;;7.33;;
3369;SDS011;42042;51.948;7.628;2023-05-21T02:16:51;11.03;;;7.43;;
3369;SDS011;42042;51.948;7.628;2023-05-21T02:19:18;8.40;;;7.47;;
3369;SDS011;42042;51.948;7.628;2023-05-21T02:21:46;8.60;;;7.80;;
3369;SDS011;42042;51.948;7.628;2023-05-21T02:24:13;9.43;;;7.37;;
3369;SDS011;42042;51.948;7.628;2023-05-21T02:26:40;15.50;;;8.07;;
3369;SDS011;42042;51.948;7.628;2023-05-21T02:29:08;8.00;;;7.20;;
3369;SDS011;42042;51.948;7.628;2023-05-21T02:31:35;10.10;;;8.20;;
3369;SDS011;42042;51.948;7.628;2023-05-21T02:34:03;9.50;;;8.10;;
3369;SDS011;42042;51.948;7.628;2023-05-21T02:36:32;11.63;;;7.67;;
3369;SDS011;42042;51.948;7.628;2023-05-21T02:39:00;8.30;;;7.47;;
3369;SDS011;42042;51.948;7.628;2023-05-21T02:41:28;8.13;;;7.33;;
3369;SDS011;42042;51.948;7.628;2023-05-21T02:43:55;8.30;;;7.47;;
3369;SDS011;42042;51.948;7.628;2023-05-21T02:46:22;8.27;;;7.53;;
3369;SDS011;42042;51.948;7.628;2023-05-21T02:48:49;8.97;;;8.03;;
3369;SDS011;42042;51.948;7.628;2023-05-21T02:51:18;9.10;;;8.20;;
3369;SDS011;42042;51.948;7.628;2023-05-21T02:53:45;10.17;;;8.50;;
3369;SDS011;42042;51.948;7.628;2023-05-21T02:56:12;12.37;;;8.20;;
3369;SDS011;42042;51.948;7.628;2023-05-21T02:58:39;9.30;;;7.93;;
3369;SDS011;42042;51.948;7.628;2023-05-21T03:01:07;9.50;;;8.57;;
3369;SDS011;42042;51.948;7.628;2023-05-21T03:03:34;8.30;;;7.43;;
3369;SDS011;42042;51.948;7.628;2023-05-21T03:06:01;9.90;;;7.27;;
3369;SDS011;42042;51.948;7.628;2023-05-21T03:08:29;11.27;;;8.10;;
3369;SDS011;42042;51.948;7.628;2023-05-21T03:10:57;10.10;;;8.63;;
3369;SDS011;42042;51.948;7.628;2023-05-21T03:13:24;11.93;;;8.63;;
3369;SDS011;42042;51.948;7.628;2023-05-21T03:15:51;8.30;;;7.50;;
3369;SDS011;42042;51.948;7.628;2023-05-21T03:18:20;8.70;;;7.90;;
3369;SDS011;42042;51.948;7.628;2023-05-21T03:20:47;9.37;;;7.93;;
3369;SDS011;42042;51.948;7.628;2023-05-21T03:23:14;8.20;;;7.50;;
3369;SDS011;42042;51.948;7.628;2023-05-21T03:25:43;9.07;;;8.00;;
3369;SDS011;42042;51.948;7.628;2023-05-21T03:28:10;12.50;;;8.30;;
3369;SDS011;42042;51.948;7.628;2023-05-21T03:30:38;9.83;;;8.27;;
3369;SDS011;42042;51.948;7.628;2023-05-21T03:33:05;9.27;;;8.23;;
3369;SDS011;42042;51.948;7.628;2023-05-21T03:35:33;9.70;;;8.70;;
3369;SDS011;42042;51.948;7.628;2023-05-21T03:38:00;9.43;;;8.23;;
3369;SDS011;42042;51.948;7.628;2023-05-21T03:40:27;11.30;;;8.90;;
3369;SDS011;42042;51.948;7.628;2023-05-21T03:42:56;10.37;;;8.43;;
3369;SDS011;42042;51.948;7.628;2023-05-21T03:45:23;9.07;;;8.27;;
3369;SDS011;42042;51.948;7.628;2023-05-21T03:47:50;10.87;;;8.70;;
3369;SDS011;42042;51.948;7.628;2023-05-21T03:50:17;9.10;;;8.20;;
3369;SDS011;42042;51.948;7.628;2023-05-21T03:52:44;11.30;;;8.20;;
3369;SDS011;42042;51.948;7.628;2023-05-21T03:55:12;10.67;;;9.20;;
3369;SDS011;42042;51.948;7.628;2023-05-21T03:57:39;10.73;;;9.63;;
3369;SDS011;42042;51.948;7.628;2023-05-21T04:00:08;9.30;;;8.50;;
3369;SDS011;42042;51.948;7.628;2023-05-21T04:02:36;9.37;;;8.57;;
3369;SDS011;42042;51.948;7.628;2023-05-21T04:05:03;9.47;;;8.03;;
3369;SDS011;42042;51.948;7.628;2023-05-21T04:07:31;10.00;;;9.00;;
3369;SDS011;42042;51.948;7.628;2023-05-21T04:09:58;10.90;;;9.23;;
3369;SDS011;42042;51.948;7.628;2023-05-21T04:12:26;9.33;;;8.33;;
3369;SDS011;42042;51.948;7.628;2023-05-21T04:14:53;10.00;;;8.37;;
3369;SDS011;42042;51.948;7.628;2023-05-21T04:17:21;13.57;;;8.70;;
3369;SDS011;42042;51.948;7.628;2023-05-21T04:19:50;9.33;;;8.43;;
3369;SDS011;42042;51.948;7.628;2023-05-21T04:22:18;11.53;;;8.83;;
3369;SDS011;42042;51.948;7.628;2023-05-21T04:24:47;9.27;;;8.33;;
3369;SDS011;42042;51.948;7.628;2023-05-21T04:27:14;9.10;;;8.20;;
3369;SDS011;42042;51.948;7.628;2023-05-21T04:29:41;9.47;;;8.33;;
3369;SDS011;42042;51.948;7.628;2023-05-21T04:32:08;9.67;;;8.67;;
3369;SDS011;42042;51.948;7.628;2023-05-21T04:34:40;9.70;;;8.60;;
3369;SDS011;42042;51.948;7.628;2023-05-21T04:37:07;13.00;;;9.10;;
3369;SDS011;42042;51.948;7.628;2023-05-21T04:39:35;9.90;;;9.00;;
3369;SDS011;42042;51.948;7.628;2023-05-21T04:42:02;9.70;;;8.70;;
3369;SDS011;42042;51.948;7.628;2023-05-21T04:44:29;9.20;;;8.30;;
3369;SDS011;42042;51.948;7.628;2023-05-21T04:46:57;9.33;;;8.20;;
3369;SDS011;42042;51.948;7.628;2023-05-21T04:49:24;9.53;;;8.40;;
3369;SDS011;42042;51.948;7.628;2023-05-21T04:51:53;9.50;;;8.50;;
3369;SDS011;42042;51.948;7.628;2023-05-21T04:54:20;9.70;;;8.67;;
3369;SDS011;42042;51.948;7.628;2023-05-21T04:56:47;8.57;;;7.83;;
3369;SDS011;42042;51.948;7.628;2023-05-21T04:59:15;13.13;;;9.07;;
3369;SDS011;42042;51.948;7.628;2023-05-21T05:01:42;12.00;;;9.30;;
3369;SDS011;42042;51.948;7.628;2023-05-21T05:04:09;10.13;;;9.03;;
3369;SDS011;42042;51.948;7.628;2023-05-21T05:06:37;11.73;;;9.47;;
3369;SDS011;42042;51.948;7.628;2023-05-21T05:09:05;10.93;;;9.37;;
3369;SDS011;42042;51.948;7.628;2023-05-21T05:11:33;10.00;;;9.00;;
3369;SDS011;42042;51.948;7.628;2023-05-21T05:14:00;12.97;;;10.07;;
3369;SDS011;42042;51.948;7.628;2023-05-21T05:16:27;10.60;;;8.70;;
3369;SDS011;42042;51.948;7.628;2023-05-21T05:18:55;9.90;;;8.90;;
3369;SDS011;42042;51.948;7.628;2023-05-21T05:21:22;10.77;;;9.77;;
3369;SDS011;42042;51.948;7.628;2023-05-21T05:23:49;10.80;;;9.70;;
3369;SDS011;42042;51.948;7.628;2023-05-21T05:26:18;11.73;;;8.53;;
3369;SDS011;42042;51.948;7.628;2023-05-21T05:28:45;12.90;;;9.10;;
3369;SDS011;42042;51.948;7.628;2023-05-21T05:31:12;10.07;;;8.50;;
3369;SDS011;42042;51.948;7.628;2023-05-21T05:33:39;12.70;;;9.40;;
3369;SDS011;42042;51.948;7.628;2023-05-21T05:36:07;10.53;;;9.53;;
3369;SDS011;42042;51.948;7.628;2023-05-21T05:38:34;11.57;;;10.17;;
3369;SDS011;42042;51.948;7.628;2023-05-21T05:41:02;10.90;;;9.80;;
3369;SDS011;42042;51.948;7.628;2023-05-21T05:43:30;11.47;;;9.13;;
3369;SDS011;42042;51.948;7.628;2023-05-21T05:45:58;14.53;;;10.23;;
3369;SDS011;42042;51.948;7.628;2023-05-21T05:48:25;11.70;;;9.60;;
3369;SDS011;42042;51.948;7.628;2023-05-21T05:50:52;12.47;;;10.13;;
3369;SDS011;42042;51.948;7.628;2023-05-21T05:53:21;12.50;;;10.73;;
3369;SDS011;42042;51.948;7.628;2023-05-21T05:55:48;10.87;;;9.27;;
3369;SDS011;42042;51.948;7.628;2023-05-21T05:58:15;13.03;;;10.43;;
3369;SDS011;42042;51.948;7.628;2023-05-21T06:00:44;9.93;;;8.93;;
3369;SDS011;42042;51.948;7.628;2023-05-21T06:03:11;11.20;;;10.00;;
3369;SDS011;42042;51.948;7.628;2023-05-21T06:05:38;12.43;;;10.10;;
3369;SDS011;42042;51.948;7.628;2023-05-21T06:08:05;15.93;;;14.20;;
3369;SDS011;42042;51.948;7.628;2023-05-21T06:10:33;14.00;;;11.00;;
3369;SDS011;42042;51.948;7.628;2023-05-21T06:13:00;11.00;;;9.07;;
3369;SDS011;42042;51.948;7.628;2023-05-21T06:15:27;11.50;;;10.30;;
3369;SDS011;42042;51.948;7.628;2023-05-21T06:17:55;11.83;;;9.30;;
3369;SDS011;42042;51.948;7.628;2023-05-21T06:20:23;11.03;;;9.93;;
3369;SDS011;42042;51.948;7.628;2023-05-21T06:22:50;11.07;;;9.97;;
3369;SDS011;42042;51.948;7.628;2023-05-21T06:25:17;10.07;;;9.10;;
3369;SDS011;42042;51.948;7.628;2023-05-21T06:27:44;10.37;;;9.43;;
3369;SDS011;42042;51.948;7.628;2023-05-21T06:30:11;10.20;;;9.20;;
3369;SDS011;42042;51.948;7.628;2023-05-21T06:32:38;10.70;;;9.70;;
3369;SDS011;42042;51.948;7.628;2023-05-21T06:35:07;11.10;;;9.93;;
3369;SDS011;42042;51.948;7.628;2023-05-21T06:37:35;10.47;;;9.37;;
3369;SDS011;42042;51.948;7.628;2023-05-21T06:40:02;10.83;;;9.53;;
3369;SDS011;42042;51.948;7.628;2023-05-21T06:42:30;9.90;;;8.40;;
3369;SDS011;42042;51.948;7.628;2023-05-21T06:44:57;14.73;;;10.87;;
3369;SDS011;42042;51.948;7.628;2023-05-21T06:47:24;11.93;;;10.00;;
3369;SDS011;42042;51.948;7.628;2023-05-21T06:49:52;12.57;;;9.77;;
3369;SDS011;42042;51.948;7.628;2023-05-21T06:52:20;13.13;;;10.80;;
3369;SDS011;42042;51.948;7.628;2023-05-21T06:54:48;12.47;;;10.10;;
3369;SDS011;42042;51.948;7.628;2023-05-21T06:57:15;12.67;;;10.00;;
3369;SDS011;42042;51.948;7.628;2023-05-21T06:59:42;11.03;;;9.90;;
3369;SDS011;42042;51.948;7.628;2023-05-21T07:02:09;12.90;;;10.20;;
3369;SDS011;42042;51.948;7.628;2023-05-21T07:04:36;11.63;;;10.50;;
3369;SDS011;42042;51.948;7.628;2023-05-21T07:07:04;11.10;;;10.07;;
3369;SDS011;42042;51.948;7.628;2023-05-21T07:09:32;11.40;;;10.13;;
3369;SDS011;42042;51.948;7.628;2023-05-21T07:12:00;10.30;;;9.20;;
3369;SDS011;42042;51.948;7.628;2023-05-21T07:14:27;11.60;;;10.13;;
3369;SDS011;42042;51.948;7.628;2023-05-21T07:16:54;10.23;;;9.23;;
3369;SDS011;42042;51.948;7.628;2023-05-21T07:19:21;10.77;;;9.20;;
3369;SDS011;42042;51.948;7.628;2023-05-21T07:21:48;9.27;;;8.37;;
3369;SDS011;42042;51.948;7.628;2023-05-21T07:24:16;10.80;;;9.70;;
3369;SDS011;42042;51.948;7.628;2023-05-21T07:26:44;10.30;;;9.30;;
3369;SDS011;42042;51.948;7.628;2023-05-21T07:29:11;11.93;;;8.93;;
3369;SDS011;42042;51.948;7.628;2023-05-21T07:31:38;9.90;;;8.57;;
3369;SDS011;42042;51.948;7.628;2023-05-21T07:34:06;9.77;;;8.83;;
3369;SDS011;42042;51.948;7.628;2023-05-21T07:36:33;10.50;;;9.20;;
3369;SDS011;42042;51.948;7.628;2023-05-21T07:39:01;11.20;;;9.43;;
3369;SDS011;42042;51.948;7.628;2023-05-21T07:41:28;10.17;;;9.10;;
3369;SDS011;42042;51.948;7.628;2023-05-21T07:43:58;9.60;;;8.60;;
3369;SDS011;42042;51.948;7.628;2023-05-21T07:46:26;8.80;;;8.10;;
3369;SDS011;42042;51.948;7.628;2023-05-21T07:48:53;11.00;;;9.43;;
3369;SDS011;42042;51.948;7.628;2023-05-21T07:51:20;11.30;;;9.67;;
3369;SDS011;42042;51.948;7.628;2023-05-21T07:53:47;14.83;;;9.67;;
3369;SDS011;42042;51.948;7.628;2023-05-21T07:56:15;11.10;;;9.57;;
3369;SDS011;42042;51.948;7.628;2023-05-21T07:58:42;14.13;;;10.20;;
3369;SDS011;42042;51.948;7.628;2023-05-21T08:01:11;14.40;;;9.70;;
3369;SDS011;42042;51.948;7.628;2023-05-21T08:03:38;11.83;;;9.57;;
3369;SDS011;42042;51.948;7.628;2023-05-21T08:06:05;16.13;;;11.63;;
3369;SDS011;42042;51.948;7.628;2023-05-21T08:08:32;15.53;;;13.50;;
3369;SDS011;42042;51.948;7.628;2023-05-21T08:11:00;11.70;;;9.63;;
3369;SDS011;42042;51.948;7.628;2023-05-21T08:13:27;10.90;;;9.80;;
3369;SDS011;42042;51.948;7.628;2023-05-21T08:15:54;11.00;;;9.90;;
3369;SDS011;42042;51.948;7.628;2023-05-21T08:18:22;10.20;;;9.20;;
3369;SDS011;42042;51.948;7.628;2023-05-21T08:20:49;10.10;;;9.20;;
3369;SDS011;42042;51.948;7.628;2023-05-21T08:23:17;14.30;;;10.43;;
3369;SDS011;42042;51.948;7.628;2023-05-21T08:25:44;10.70;;;9.60;;
3369;SDS011;42042;51.948;7.628;2023-05-21T08:28:11;11.00;;;9.90;;
3369;SDS011;42042;51.948;7.628;2023-05-21T08:30:38;11.53;;;9.90;;
3369;SDS011;42042;51.948;7.628;2023-05-21T08:33:06;11.10;;;9.90;;
3369;SDS011;42042;51.948;7.628;2023-05-21T08:35:34;11.03;;;9.83;;
3369;SDS011;42042;51.948;7.628;2023-05-21T08:38:01;13.10;;;11.03;;
3369;SDS011;42042;51.948;7.628;2023-05-21T08:40:28;12.17;;;10.87;;
3369;SDS011;42042;51.948;7.628;2023-05-21T08:42:56;11.50;;;10.37;;
3369;SDS011;42042;51.948;7.628;2023-05-21T08:45:23;10.70;;;9.60;;
3369;SDS011;42042;51.948;7.628;2023-05-21T08:47:53;14.13;;;10.83;;
3369;SDS011;42042;51.948;7.628;2023-05-21T08:50:21;11.37;;;10.00;;
3369;SDS011;42042;51.948;7.628;2023-05-21T08:52:51;12.13;;;10.83;;
3369;SDS011;42042;51.948;7.628;2023-05-21T08:55:19;11.97;;;10.77;;
3369;SDS011;42042;51.948;7.628;2023-05-21T08:57:47;11.87;;;10.20;;
3369;SDS011;42042;51.948;7.628;2023-05-21T09:00:15;11.73;;;10.57;;
3369;SDS011;42042;51.948;7.628;2023-05-21T09:02:44;14.50;;;11.43;;
3369;SDS011;42042;51.948;7.628;2023-05-21T09:05:12;12.53;;;10.40;;
3369;SDS011;42042;51.948;7.628;2023-05-21T09:07:42;11.80;;;9.73;;
3369;SDS011;42042;51.948;7.628;2023-05-21T09:10:13;12.50;;;11.30;;
3369;SDS011;42042;51.948;7.628;2023-05-21T09:12:40;15.73;;;14.07;;
3369;SDS011;42042;51.948;7.628;2023-05-21T09:15:08;13.60;;;12.30;;
3369;SDS011;42042;51.948;7.628;2023-05-21T09:17:35;13.03;;;11.83;;
3369;SDS011;42042;51.948;7.628;2023-05-21T09:20:03;14.83;;;11.03;;
3369;SDS011;42042;51.948;7.628;2023-05-21T09:22:33;13.63;;;12.33;;
3369;SDS011;42042;51.948;7.628;2023-05-21T09:25:02;14.80;;;12.60;;
3369;SDS011;42042;51.948;7.628;2023-05-21T09:27:38;18.40;;;12.63;;
3369;SDS011;42042;51.948;7.628;2023-05-21T09:30:08;12.67;;;11.30;;
3369;SDS011;42042;51.948;7.628;2023-05-21T09:32:36;13.70;;;12.17;;
3369;SDS011;42042;51.948;7.628;2023-05-21T09:35:06;17.60;;;12.90;;
3369;SDS011;42042;51.948;7.628;2023-05-21T09:37:37;18.27;;;12.60;;
3369;SDS011;42042;51.948;7.628;2023-05-21T09:40:08;14.40;;;11.33;;
3369;SDS011;42042;51.948;7.628;2023-05-21T09:42:38;15.10;;;12.87;;
3369;SDS011;42042;51.948;7.628;2023-05-21T09:45:06;15.40;;;13.10;;
3369;SDS011;42042;51.948;7.628;2023-05-21T09:47:33;16.33;;;12.20;;
3369;SDS011;42042;51.948;7.628;2023-05-21T09:50:00;17.57;;;13.07;;
3369;SDS011;42042;51.948;7.628;2023-05-21T09:52:27;15.00;;;13.50;;
3369;SDS011;42042;51.948;7.628;2023-05-21T09:54:55;13.80;;;12.17;;
3369;SDS011;42042;51.948;7.628;2023-05-21T09:57:23;14.33;;;12.93;;
3369;SDS011;42042;51.948;7.628;2023-05-21T09:59:52;15.27;;;13.60;;
3369;SDS011;42042;51.948;7.628;2023-05-21T10:04:52;17.43;;;12.83;;
3369;SDS011;42042;51.948;7.628;2023-05-21T10:07:19;15.00;;;13.57;;
3369;SDS011;42042;51.948;7.628;2023-05-21T10:09:49;16.50;;;13.70;;
3369;SDS011;42042;51.948;7.628;2023-05-21T10:12:18;16.67;;;13.23;;
3369;SDS011;42042;51.948;7.628;2023-05-21T10:14:46;16.00;;;13.50;;
3369;SDS011;42042;51.948;7.628;2023-05-21T10:17:18;17.17;;;14.30;;
3369;SDS011;42042;51.948;7.628;2023-05-21T10:19:47;16.50;;;13.80;;
3369;SDS011;42042;51.948;7.628;2023-05-21T10:22:14;18.40;;;14.50;;
3369;SDS011;42042;51.948;7.628;2023-05-21T10:24:42;16.53;;;14.60;;
3369;SDS011;42042;51.948;7.628;2023-05-21T10:27:10;16.50;;;14.80;;
3369;SDS011;42042;51.948;7.628;2023-05-21T10:29:37;14.83;;;13.03;;
3369;SDS011;42042;51.948;7.628;2023-05-21T10:32:06;18.60;;;15.30;;
3369;SDS011;42042;51.948;7.628;2023-05-21T10:34:35;16.33;;;14.00;;
3369;SDS011;42042;51.948;7.628;2023-05-21T10:37:03;20.30;;;14.50;;
3369;SDS011;42042;51.948;7.628;2023-05-21T10:39:34;17.73;;;16.00;;
3369;SDS011;42042;51.948;7.628;2023-05-21T10:42:04;16.70;;;14.50;;
3369;SDS011;42042;51.948;7.628;2023-05-21T10:44:35;18.13;;;16.23;;
3369;SDS011;42042;51.948;7.628;2023-05-21T10:47:18;19.20;;;14.63;;
3369;SDS011;42042;51.948;7.628;2023-05-21T10:49:57;16.57;;;14.77;;
3369;SDS011;42042;51.948;7.628;2023-05-21T10:52:34;15.73;;;14.23;;
3369;SDS011;42042;51.948;7.628;2023-05-21T10:55:10;18.20;;;15.53;;
3369;SDS011;42042;51.948;7.628;2023-05-21T10:57:45;14.87;;;13.33;;
3369;SDS011;42042;51.948;7.628;2023-05-21T11:00:17;16.23;;;14.63;;
3369;SDS011;42042;51.948;7.628;2023-05-21T11:02:45;15.33;;;13.53;;
3369;SDS011;42042;51.948;7.628;2023-05-21T11:05:14;21.40;;;15.03;;
3369;SDS011;42042;51.948;7.628;2023-05-21T11:07:50;20.13;;;16.00;;
3369;SDS011;42042;51.948;7.628;2023-05-21T11:10:29;16.60;;;13.93;;
3369;SDS011;42042;51.948;7.628;2023-05-21T11:13:12;17.70;;;14.23;;
3369;SDS011;42042;51.948;7.628;2023-05-21T11:18:43;18.20;;;14.47;;
3369;SDS011;42042;51.948;7.628;2023-05-21T11:21:27;16.80;;;15.10;;
3369;SDS011;42042;51.948;7.628;2023-05-21T11:23:55;14.90;;;13.40;;
3369;SDS011;42042;51.948;7.628;2023-05-21T11:26:22;17.70;;;15.90;;
3369;SDS011;42042;51.948;7.628;2023-05-21T11:28:50;18.43;;;16.67;;
3369;SDS011;42042;51.948;7.628;2023-05-21T11:31:31;18.40;;;16.57;;
3369;SDS011;42042;51.948;7.628;2023-05-21T11:34:10;15.13;;;13.73;;
3369;SDS011;42042;51.948;7.628;2023-05-21T11:36:39;16.47;;;14.73;;
3369;SDS011;42042;51.948;7.628;2023-05-21T11:39:07;16.00;;;14.37;;
3369;SDS011;42042;51.948;7.628;2023-05-21T11:41:51;17.03;;;14.20;;
3369;SDS011;42042;51.948;7.628;2023-05-21T11:44:20;16.83;;;15.20;;
3369;SDS011;42042;51.948;7.628;2023-05-21T11:46:47;15.87;;;14.27;;
3369;SDS011;42042;51.948;7.628;2023-05-21T11:49:20;17.40;;;15.20;;
3369;SDS011;42042;51.948;7.628;2023-05-21T11:51:49;17.60;;;14.30;;
3369;SDS011;42042;51.948;7.628;2023-05-21T11:54:17;15.73;;;14.13;;
3369;SDS011;42042;51.948;7.628;2023-05-21T11:56:45;16.30;;;13.67;;
3369;SDS011;42042;51.948;7.628;2023-05-21T11:59:12;17.10;;;14.37;;
3369;SDS011;42042;51.948;7.628;2023-05-21T12:01:41;15.80;;;14.20;;
3369;SDS011;42042;51.948;7.628;2023-05-21T12:04:08;17.63;;;15.93;;
3369;SDS011;42042;51.948;7.628;2023-05-21T12:06:36;16.87;;;15.13;;
3369;SDS011;42042;51.948;7.628;2023-05-21T12:09:08;18.63;;;16.67;;
3369;SDS011;42042;51.948;7.628;2023-05-21T12:11:36;18.30;;;16.57;;
3369;SDS011;42042;51.948;7.628;2023-05-21T12:14:05;19.00;;;16.23;;
3369;SDS011;42042;51.948;7.628;2023-05-21T12:16:34;17.33;;;15.53;;
3369;SDS011;42042;51.948;7.628;2023-05-21T12:19:01;21.60;;;15.67;;
3369;SDS011;42042;51.948;7.628;2023-05-21T12:21:28;21.93;;;17.80;;
3369;SDS011;42042;51.948;7.628;2023-05-21T12:23:56;17.07;;;15.37;;
3369;SDS011;42042;51.948;7.628;2023-05-21T12:26:25;17.90;;;14.90;;
3369;SDS011;42042;51.948;7.628;2023-05-21T12:28:52;18.17;;;16.37;;
3369;SDS011;42042;51.948;7.628;2023-05-21T12:31:20;19.33;;;15.60;;
3369;SDS011;42042;51.948;7.628;2023-05-21T12:33:47;19.60;;;17.50;;
3369;SDS011;42042;51.948;7.628;2023-05-21T12:36:21;18.50;;;15.97;;
3369;SDS011;42042;51.948;7.628;2023-05-21T12:38:48;18.50;;;15.20;;
3369;SDS011;42042;51.948;7.628;2023-05-21T12:41:16;14.77;;;13.27;;
3369;SDS011;42042;51.948;7.628;2023-05-21T12:43:45;18.80;;;14.93;;
3369;SDS011;42042;51.948;7.628;2023-05-21T12:46:12;15.13;;;13.73;;
3369;SDS011;42042;51.948;7.628;2023-05-21T12:48:46;16.30;;;14.60;;
3369;SDS011;42042;51.948;7.628;2023-05-21T12:51:14;15.43;;;13.87;;
3369;SDS011;42042;51.948;7.628;2023-05-21T12:53:41;16.47;;;14.57;;
3369;SDS011;42042;51.948;7.628;2023-05-21T12:56:09;17.47;;;15.70;;
3369;SDS011;42042;51.948;7.628;2023-05-21T12:58:36;15.70;;;14.20;;
3369;SDS011;42042;51.948;7.628;2023-05-21T13:01:06;16.13;;;14.70;;
3369;SDS011;42042;51.948;7.628;2023-05-21T13:03:33;16.50;;;14.87;;
3369;SDS011;42042;51.948;7.628;2023-05-21T13:06:00;17.63;;;15.00;;
3369;SDS011;42042;51.948;7.628;2023-05-21T13:08:27;16.83;;;15.17;;
3369;SDS011;42042;51.948;7.628;2023-05-21T13:10:55;20.90;;;15.33;;
3369;SDS011;42042;51.948;7.628;2023-05-21T13:13:22;17.43;;;15.67;;
3369;SDS011;42042;51.948;7.628;2023-05-21T13:15:49;17.70;;;14.87;;
3369;SDS011;42042;51.948;7.628;2023-05-21T13:18:18;16.63;;;15.13;;
3369;SDS011;42042;51.948;7.628;2023-05-21T13:20:45;17.60;;;15.80;;
3369;SDS011;42042;51.948;7.628;2023-05-21T13:23:13;18.07;;;15.43;;
3369;SDS011;42042;51.948;7.628;2023-05-21T13:25:40;16.33;;;14.63;;
3369;SDS011;42042;51.948;7.628;2023-05-21T13:28:07;19.23;;;17.27;;
3369;SDS011;42042;51.948;7.628;2023-05-21T13:30:39;20.20;;;17.70;;
3369;SDS011;42042;51.948;7.628;2023-05-21T13:33:06;17.00;;;15.27;;
3369;SDS011;42042;51.948;7.628;2023-05-21T13:35:34;16.50;;;14.50;;
3369;SDS011;42042;51.948;7.628;2023-05-21T13:38:01;19.50;;;15.50;;
3369;SDS011;42042;51.948;7.628;2023-05-21T13:40:29;17.67;;;15.70;;
3369;SDS011;42042;51.948;7.628;2023-05-21T13:42:56;17.10;;;15.27;;
3369;SDS011;42042;51.948;7.628;2023-05-21T13:45:23;20.00;;;15.63;;
3369;SDS011;42042;51.948;7.628;2023-05-21T13:47:53;16.50;;;14.87;;
3369;SDS011;42042;51.948;7.628;2023-05-21T13:50:21;18.50;;;16.00;;
3369;SDS011;42042;51.948;7.628;2023-05-21T13:52:49;19.17;;;15.63;;
3369;SDS011;42042;51.948;7.628;2023-05-21T13:55:16;18.00;;;16.30;;
3369;SDS011;42042;51.948;7.628;2023-05-21T13:57:43;16.63;;;15.00;;
3369;SDS011;42042;51.948;7.628;2023-05-21T14:00:11;18.10;;;16.37;;
3369;SDS011;42042;51.948;7.628;2023-05-21T14:02:39;18.17;;;16.30;;
3369;SDS011;42042;51.948;7.628;2023-05-21T14:05:07;18.50;;;16.53;;
3369;SDS011;42042;51.948;7.628;2023-05-21T14:07:34;17.90;;;16.00;;
3369;SDS011;42042;51.948;7.628;2023-05-21T14:10:03;17.20;;;15.40;;
3369;SDS011;42042;51.948;7.628;2023-05-21T14:12:31;20.63;;;18.40;;
3369;SDS011;42042;51.948;7.628;2023-05-21T14:14:58;15.93;;;14.17;;
3369;SDS011;42042;51.948;7.628;2023-05-21T14:17:25;15.00;;;13.60;;
3369;SDS011;42042;51.948;7.628;2023-05-21T14:19:54;16.57;;;14.97;;
3369;SDS011;42042;51.948;7.628;2023-05-21T14:22:21;18.40;;;15.93;;
3369;SDS011;42042;51.948;7.628;2023-05-21T14:24:49;17.33;;;15.60;;
3369;SDS011;42042;51.948;7.628;2023-05-21T14:27:18;18.60;;;15.10;;
3369;SDS011;42042;51.948;7.628;2023-05-21T14:29:45;15.57;;;14.10;;
3369;SDS011;42042;51.948;7.628;2023-05-21T14:32:12;15.07;;;13.77;;
3369;SDS011;42042;51.948;7.628;2023-05-21T14:34:41;22.93;;;17.40;;
3369;SDS011;42042;51.948;7.628;2023-05-21T14:37:08;20.07;;;18.03;;
3369;SDS011;42042;51.948;7.628;2023-05-21T14:39:35;18.27;;;16.57;;
3369;SDS011;42042;51.948;7.628;2023-05-21T14:42:02;18.60;;;16.30;;
3369;SDS011;42042;51.948;7.628;2023-05-21T14:44:31;16.93;;;15.10;;
3369;SDS011;42042;51.948;7.628;2023-05-21T14:46:58;17.07;;;15.30;;
3369;SDS011;42042;51.948;7.628;2023-05-21T14:49:25;17.20;;;15.70;;
3369;SDS011;42042;51.948;7.628;2023-05-21T14:51:53;17.40;;;15.70;;
3369;SDS011;42042;51.948;7.628;2023-05-21T14:54:20;16.50;;;13.93;;
3369;SDS011;42042;51.948;7.628;2023-05-21T14:56:47;16.43;;;14.10;;